Time;durP1;ratioP1;P1;durP2;ratioP2;P2;SDS_P1;SDS_P2;PMS_P1;PMS_P2;Temp;Humidity;BMP_temperature;BMP_pressure;BME280_temperature;BME280_humidity;BME280_pressure;Samples;Min_cycle;Max_cycle;Signal;HPM_P1;HPM_P2
2022/05/05 00:00:09;;;;;;;28.85;12.40;;;;;;;10.28;86.98;101823.09;5102704;28;20028;-67
2022/05/05 00:02:35;;;;;;;26.30;12.98;;;;;;;10.15;87.63;101821.06;5103228;28;20095;-68
2022/05/05 00:05:01;;;;;;;32.83;13.65;;;;;;;10.06;88.46;101822.69;5101805;28;20031;-74
2022/05/05 00:07:26;;;;;;;28.15;12.73;;;;;;;9.89;89.72;101821.41;5104254;28;20020;-69
2022/05/05 00:09:52;;;;;;;27.02;12.63;;;;;;;9.81;90.08;101817.69;5101136;28;20046;-71
2022/05/05 00:15:01;;;;;;;30.35;13.00;;;;;;;9.51;94.05;101829.28;5102096;28;20043;-73
2022/05/05 00:17:26;;;;;;;27.38;12.98;;;;;;;9.39;97.33;101820.25;5104466;28;20016;-72
2022/05/05 00:19:52;;;;;;;28.08;13.50;;;;;;;9.40;98.50;101823.75;5104070;28;20107;-69
2022/05/05 00:22:17;;;;;;;27.00;13.88;;;;;;;9.36;98.85;101827.19;5108347;28;20043;-76
2022/05/05 00:24:42;;;;;;;27.35;13.43;;;;;;;9.26;100.00;101820.75;5105978;28;20023;-74
2022/05/05 00:27:08;;;;;;;29.77;12.88;;;;;;;9.33;100.00;101825.34;5106654;28;20048;-74
2022/05/05 00:29:34;;;;;;;30.55;12.98;;;;;;;9.20;100.00;101828.53;5107202;28;20031;-74
2022/05/05 00:31:59;;;;;;;29.42;13.40;;;;;;;9.19;100.00;101822.38;5104958;28;20136;-76
2022/05/05 00:34:25;;;;;;;26.83;12.98;;;;;;;9.17;100.00;101823.19;5108600;28;20114;-69
2022/05/05 00:36:50;;;;;;;26.85;13.05;;;;;;;9.20;100.00;101817.97;5104846;28;20028;-76
2022/05/05 00:39:16;;;;;;;27.15;13.07;;;;;;;9.14;100.00;101823.97;5107133;28;20031;-78
2022/05/05 00:41:44;;;;;;;27.35;13.30;;;;;;;9.17;100.00;101818.78;5106134;28;20024;-68
2022/05/05 00:44:10;;;;;;;26.13;12.77;;;;;;;9.15;100.00;101827.53;5106235;28;20394;-75
2022/05/05 00:46:36;;;;;;;28.10;13.07;;;;;;;9.04;100.00;101820.25;5106555;28;20027;-68
2022/05/05 00:49:02;;;;;;;27.10;12.38;;;;;;;9.12;100.00;101819.53;5104783;28;20059;-73
2022/05/05 00:51:28;;;;;;;28.92;13.05;;;;;;;9.14;100.00;101820.47;5107841;28;20078;-71
2022/05/05 00:53:54;;;;;;;28.13;12.82;;;;;;;9.14;100.00;101812.56;5104362;28;20027;-63
2022/05/05 00:56:21;;;;;;;25.48;12.57;;;;;;;9.09;100.00;101817.72;5107854;28;20058;-66
2022/05/05 00:58:48;;;;;;;27.42;13.15;;;;;;;9.08;100.00;101818.56;5104794;28;20032;-63
2022/05/05 01:01:23;;;;;;;25.55;12.93;;;;;;;8.96;100.00;101821.78;5106368;28;20166;-65
2022/05/05 01:03:49;;;;;;;26.90;13.55;;;;;;;9.00;100.00;101821.00;5105002;28;20027;-63
2022/05/05 01:06:16;;;;;;;26.10;13.05;;;;;;;9.05;100.00;101815.84;5106885;28;20024;-63
2022/05/05 01:08:42;;;;;;;28.33;13.68;;;;;;;9.06;100.00;101823.78;5105863;27;20024;-64
2022/05/05 01:11:08;;;;;;;27.38;13.02;;;;;;;9.03;100.00;101820.19;5105825;28;20028;-63
2022/05/05 01:13:38;;;;;;;25.73;12.82;;;;;;;8.92;100.00;101825.16;5106529;28;20026;-64
2022/05/05 01:16:04;;;;;;;26.35;13.38;;;;;;;8.86;100.00;101828.53;5104615;28;20044;-63
2022/05/05 01:18:30;;;;;;;26.20;13.32;;;;;;;8.88;100.00;101818.03;5107032;28;20038;-62
2022/05/05 01:20:55;;;;;;;28.75;13.45;;;;;;;8.92;100.00;101822.53;5103712;28;20127;-63
2022/05/05 01:23:21;;;;;;;27.73;13.05;;;;;;;8.96;100.00;101815.63;5106998;28;20032;-62
2022/05/05 01:28:39;;;;;;;26.17;13.18;;;;;;;9.06;100.00;101818.53;5104731;28;20039;-63
2022/05/05 01:31:04;;;;;;;;;;;;;;;9.21;100.00;101814.50;5106031;28;20023;-63
2022/05/05 01:33:30;;;;;;;27.27;14.00;;;;;;;9.07;100.00;101811.50;5103826;28;19919;-62
2022/05/05 01:35:57;;;;;;;26.75;12.88;;;;;;;8.90;100.00;101813.72;5107106;28;20526;-63
2022/05/05 01:38:36;;;;;;;26.25;12.63;;;;;;;8.90;100.00;101819.84;5103727;28;20157;-63
2022/05/05 01:41:06;;;;;;;25.98;13.07;;;;;;;8.90;100.00;101816.34;5104136;28;20122;-63
2022/05/05 01:43:31;;;;;;;26.52;12.60;;;;;;;9.02;100.00;101815.78;5106169;28;20020;-63
2022/05/05 01:45:57;;;;;;;27.05;13.50;;;;;;;8.85;100.00;101815.31;5103617;28;20026;-63
2022/05/05 01:48:23;;;;;;;26.13;13.15;;;;;;;9.01;100.00;101809.63;5103372;28;20024;-66
2022/05/05 01:50:51;;;;;;;25.77;12.88;;;;;;;9.02;100.00;101807.84;5105971;28;20035;-63
2022/05/05 01:53:16;;;;;;;25.23;13.13;;;;;;;9.09;100.00;101820.34;5104055;28;20032;-65
2022/05/05 01:55:42;;;;;;;25.75;12.93;;;;;;;9.11;100.00;101817.75;5105164;28;20023;-63
2022/05/05 01:58:07;;;;;;;26.95;13.52;;;;;;;9.02;100.00;101819.28;5104935;28;20070;-62
2022/05/05 02:00:32;;;;;;;25.95;13.35;;;;;;;9.04;100.00;101817.59;5102903;28;20542;-63
2022/05/05 02:02:58;;;;;;;27.20;13.73;;;;;;;9.08;100.00;101821.19;5106399;28;20103;-63
2022/05/05 02:05:24;;;;;;;25.85;13.95;;;;;;;9.16;100.00;101826.66;5102985;28;20139;-63
2022/05/05 02:07:49;;;;;;;26.27;13.38;;;;;;;9.14;100.00;101825.75;5106218;28;20058;-64
2022/05/05 02:10:17;;;;;;;26.80;13.68;;;;;;;9.22;100.00;101826.84;5102777;27;20144;-62
2022/05/05 02:12:44;;;;;;;26.50;13.55;;;;;;;9.24;100.00;101819.84;5105119;28;20379;-62
2022/05/05 02:15:11;;;;;;;26.80;13.75;;;;;;;9.16;100.00;101827.56;5104561;27;20023;-62
2022/05/05 02:17:39;;;;;;;25.38;13.10;;;;;;;9.28;100.00;101834.91;5103904;28;20032;-63
2022/05/05 02:20:07;;;;;;;26.13;13.75;;;;;;;9.15;100.00;101830.19;5105057;28;20032;-63
2022/05/05 02:22:33;;;;;;;25.52;12.98;;;;;;;9.27;100.00;101822.56;5103717;28;20020;-63
2022/05/05 02:24:59;;;;;;;25.35;12.98;;;;;;;9.36;100.00;101825.44;5105787;28;20050;-63
2022/05/05 02:27:24;;;;;;;27.85;13.80;;;;;;;9.26;100.00;101826.03;5102551;28;20028;-63
2022/05/05 02:29:51;;;;;;;26.73;13.57;;;;;;;9.20;100.00;101832.09;5105749;28;20475;-63
2022/05/05 02:32:17;;;;;;;25.35;13.52;;;;;;;9.18;100.00;101836.41;5103218;28;20027;-63
2022/05/05 02:34:43;;;;;;;26.75;13.18;;;;;;;9.25;100.00;101833.06;5104274;28;20482;-62
2022/05/05 02:39:53;;;;;;;26.20;13.27;;;;;;;9.26;100.00;101828.69;5106000;28;20038;-62
2022/05/05 02:42:18;;;;;;;26.33;13.77;;;;;;;9.20;100.00;101829.44;5102612;27;20023;-62
2022/05/05 02:44:44;;;;;;;28.60;14.07;;;;;;;9.21;100.00;101832.97;5104722;28;20497;-63
2022/05/05 02:47:10;;;;;;;27.05;14.18;;;;;;;9.30;100.00;101832.31;5104048;28;20059;-63
2022/05/05 02:49:35;;;;;;;27.27;13.35;;;;;;;9.32;100.00;101827.94;5103092;28;20223;-63
2022/05/05 02:52:05;;;;;;;26.73;13.75;;;;;;;9.32;100.00;101826.22;5105530;28;20024;-63
2022/05/05 02:57:15;;;;;;;26.77;13.82;;;;;;;9.25;100.00;101832.19;5103373;28;20034;-62
2022/05/05 02:59:41;;;;;;;26.00;13.73;;;;;;;9.09;100.00;101836.19;5103803;28;20036;-62
2022/05/05 03:02:07;;;;;;;29.00;14.15;;;;;;;9.01;100.00;101828.06;5104405;28;20024;-62
2022/05/05 03:04:32;;;;;;;26.58;13.88;;;;;;;8.96;100.00;101832.31;5102545;28;20028;-62
2022/05/05 03:06:57;;;;;;;25.10;12.85;;;;;;;9.14;100.00;101828.38;5105296;28;20031;-62
2022/05/05 03:09:22;;;;;;;25.95;13.43;;;;;;;9.16;100.00;101831.94;5101924;28;20028;-63
2022/05/05 03:11:48;;;;;;;25.50;13.50;;;;;;;9.18;100.00;101824.97;5104286;28;20565;-63
2022/05/05 03:14:13;;;;;;;26.15;13.98;;;;;;;9.15;100.00;101827.53;5103273;28;20028;-63
2022/05/05 03:16:39;;;;;;;25.98;13.63;;;;;;;9.20;100.00;101823.25;5103124;28;20027;-62
2022/05/05 03:19:04;;;;;;;27.30;14.32;;;;;;;9.18;100.00;101819.69;5104274;28;20034;-64
2022/05/05 03:21:29;;;;;;;27.20;14.07;;;;;;;9.13;100.00;101826.59;5101490;28;20031;-62
2022/05/05 03:23:55;;;;;;;26.45;13.65;;;;;;;9.16;100.00;101829.31;5105289;28;20058;-62
2022/05/05 03:26:20;;;;;;;26.73;13.13;;;;;;;9.17;100.00;101825.81;5101706;28;20031;-63
2022/05/05 03:28:45;;;;;;;27.17;13.43;;;;;;;9.12;100.00;101830.97;5103808;28;20024;-62
2022/05/05 03:31:11;;;;;;;26.15;13.68;;;;;;;9.20;100.00;101829.44;5103321;28;20028;-62
2022/05/05 03:33:36;;;;;;;27.83;14.00;;;;;;;9.10;100.00;101835.34;5117763;28;20608;-62
2022/05/05 03:36:03;;;;;;;27.25;13.85;;;;;;;9.16;100.00;101842.50;5124288;28;20015;-64
2022/05/05 03:38:29;;;;;;;26.77;13.90;;;;;;;9.11;100.00;101836.22;5103421;28;20050;-66
2022/05/05 03:40:54;;;;;;;26.08;13.68;;;;;;;9.03;100.00;101839.53;5106822;28;20146;-67
2022/05/05 03:43:20;;;;;;;27.17;13.75;;;;;;;9.05;100.00;101840.47;5101862;28;20055;-69
2022/05/05 03:45:45;;;;;;;26.13;13.95;;;;;;;8.95;100.00;101841.06;5103711;28;20021;-67
2022/05/05 03:48:11;;;;;;;25.90;14.10;;;;;;;8.94;100.00;101836.69;5102858;28;20015;-71
2022/05/05 03:50:36;;;;;;;25.50;13.85;;;;;;;9.01;100.00;101840.34;5102231;28;20506;-65
2022/05/05 03:53:02;;;;;;;26.58;13.98;;;;;;;9.04;100.00;101843.06;5103771;28;20032;-69
2022/05/05 03:55:29;;;;;;;25.75;13.70;;;;;;;9.06;100.00;101847.53;5101079;28;20367;-66
2022/05/05 03:57:54;;;;;;;26.80;14.77;;;;;;;9.05;100.00;101851.00;5101102;28;20028;-67
2022/05/05 04:00:21;;;;;;;26.98;14.77;;;;;;;8.98;100.00;101850.81;5103856;28;20024;-68
2022/05/05 04:03:30;;;;;;;28.75;14.05;;;;;;;8.95;100.00;101854.25;5101899;28;20034;-71
2022/05/05 04:05:33;;;;;;;28.83;15.02;;;;;;;8.88;100.00;101855.84;5101519;27;20088;-68
2022/05/05 04:07:59;;;;;;;29.58;14.52;;;;;;;8.89;100.00;101856.75;5104731;28;20494;-69
2022/05/05 04:10:25;;;;;;;28.42;14.48;;;;;;;8.89;100.00;101857.63;5100837;28;20020;-66
2022/05/05 04:12:50;;;;;;;28.92;15.05;;;;;;;8.90;100.00;101858.53;5104060;28;20035;-68
2022/05/05 04:15:15;;;;;;;25.92;13.75;;;;;;;8.98;100.00;101864.88;5102402;28;20050;-68
2022/05/05 04:17:41;;;;;;;27.67;14.30;;;;;;;9.02;100.00;101869.41;5101283;28;20037;-65
2022/05/05 04:20:06;;;;;;;28.77;14.40;;;;;;;9.08;100.00;101859.00;5103606;28;20035;-65
2022/05/05 04:22:32;;;;;;;27.45;14.60;;;;;;;9.15;100.00;101868.00;5101324;28;20028;-64
2022/05/05 04:24:57;;;;;;;27.40;14.13;;;;;;;9.24;100.00;101868.22;5104300;28;20382;-68
2022/05/05 04:27:22;;;;;;;29.25;14.70;;;;;;;9.29;100.00;101864.81;5101026;28;20032;-63
2022/05/05 04:29:48;;;;;;;27.70;14.85;;;;;;;9.35;100.00;101871.16;5103433;28;20020;-67
2022/05/05 04:32:13;;;;;;;27.90;14.98;;;;;;;9.39;100.00;101873.03;5102567;28;20023;-67
2022/05/05 04:34:39;;;;;;;30.10;14.95;;;;;;;9.42;100.00;101878.38;5102235;28;20458;-65
2022/05/05 04:37:05;;;;;;;28.38;15.00;;;;;;;9.49;100.00;101881.16;5103425;28;20385;-65
2022/05/05 04:39:30;;;;;;;26.40;14.13;;;;;;;9.52;100.00;101879.50;5103432;28;20458;-69
2022/05/05 04:41:56;;;;;;;26.52;14.70;;;;;;;9.47;100.00;101882.88;5099764;28;20127;-65
2022/05/05 04:44:21;;;;;;;29.42;15.23;;;;;;;9.40;100.00;101880.06;5103391;28;20469;-65
2022/05/05 04:46:46;;;;;;;28.45;14.57;;;;;;;9.51;100.00;101882.09;5101971;28;20028;-66
2022/05/05 04:49:12;;;;;;;27.23;14.77;;;;;;;9.46;100.00;101883.72;5102204;28;20027;-68
2022/05/05 04:51:37;;;;;;;29.65;14.70;;;;;;;9.40;100.00;101882.69;5103441;28;20059;-69
2022/05/05 04:54:02;;;;;;;28.58;14.73;;;;;;;9.38;100.00;101887.06;5100805;28;20025;-67
2022/05/05 04:56:30;;;;;;;28.25;14.90;;;;;;;9.33;100.00;101885.16;5104261;28;20389;-63
2022/05/05 04:58:56;;;;;;;29.52;15.85;;;;;;;9.27;100.00;101887.63;5100747;28;20039;-63
2022/05/05 05:01:21;;;;;;;29.60;16.00;;;;;;;9.26;100.00;101886.72;5103602;28;20028;-65
2022/05/05 05:03:47;;;;;;;28.63;15.80;;;;;;;9.32;100.00;101886.00;5102077;28;20484;-63
2022/05/05 05:06:12;;;;;;;30.88;15.85;;;;;;;9.37;100.00;101901.09;5103885;28;20052;-63
2022/05/05 05:08:38;;;;;;;27.55;15.77;;;;;;;9.33;100.00;101898.34;5106444;28;20023;-63
2022/05/05 05:11:04;;;;;;;30.98;16.95;;;;;;;9.26;100.00;101894.63;5103830;28;20391;-69
2022/05/05 05:13:30;;;;;;;28.92;16.55;;;;;;;9.29;100.00;101902.66;5107288;28;20020;-64
2022/05/05 05:15:56;;;;;;;30.95;17.00;;;;;;;9.25;100.00;101903.44;5104356;28;20051;-64
2022/05/05 05:18:22;;;;;;;30.33;16.77;;;;;;;9.39;100.00;101906.41;5109083;28;20034;-64
2022/05/05 05:20:48;;;;;;;28.77;16.77;;;;;;;9.50;100.00;101912.00;5107216;28;20031;-63
2022/05/05 05:23:13;;;;;;;29.58;17.05;;;;;;;9.46;100.00;101905.72;5106247;28;20074;-63
2022/05/05 05:25:39;;;;;;;33.30;17.88;;;;;;;9.42;100.00;101912.69;5106472;28;20416;-64
2022/05/05 05:28:04;;;;;;;30.60;17.40;;;;;;;9.43;100.00;101911.81;5103942;28;20020;-64
2022/05/05 05:30:29;;;;;;;32.80;18.52;;;;;;;9.44;100.00;101918.00;5107471;28;20031;-63
2022/05/05 05:32:55;;;;;;;32.15;18.00;;;;;;;9.48;100.00;101919.88;5103875;28;20050;-63
2022/05/05 05:35:20;;;;;;;30.65;17.60;;;;;;;9.51;100.00;101924.31;5106233;28;20027;-64
2022/05/05 05:37:45;;;;;;;30.88;17.77;;;;;;;9.52;100.00;101921.75;5105176;28;20027;-63
2022/05/05 05:40:11;;;;;;;31.02;18.20;;;;;;;9.57;100.00;101927.13;5103381;28;20050;-63
2022/05/05 05:42:36;;;;;;;29.85;17.58;;;;;;;9.62;100.00;101925.50;5106110;28;20023;-63
2022/05/05 05:45:02;;;;;;;37.83;19.02;;;;;;;9.61;100.00;101926.38;5103250;28;20383;-63
2022/05/05 05:47:27;;;;;;;31.50;18.98;;;;;;;9.58;100.00;101927.19;5105900;28;20031;-67
2022/05/05 05:49:52;;;;;;;30.95;18.52;;;;;;;9.61;100.00;101926.38;5113827;28;20040;-67
2022/05/05 05:52:18;;;;;;;31.23;18.35;;;;;;;9.75;100.00;101927.56;5113477;28;20028;-70
2022/05/05 05:54:43;;;;;;;32.70;19.63;;;;;;;9.77;100.00;101936.44;5113691;28;20047;-69
2022/05/05 05:57:08;;;;;;;33.13;19.40;;;;;;;9.90;100.00;101934.09;5113750;28;20075;-68
2022/05/05 05:59:34;;;;;;;34.20;20.05;;;;;;;9.88;100.00;101933.19;5107478;28;20118;-69
2022/05/05 06:04:43;;;;;;;33.45;21.30;;;;;;;10.04;100.00;101937.97;5112773;28;20122;-68
2022/05/05 06:07:08;;;;;;;34.10;21.98;;;;;;;10.09;100.00;101936.34;5114152;28;20110;-71
2022/05/05 06:09:33;;;;;;;33.75;21.45;;;;;;;10.21;100.00;101935.72;5107317;28;20428;-66
2022/05/05 06:12:00;;;;;;;35.08;21.88;;;;;;;10.28;100.00;101947.31;5113996;28;20063;-69
2022/05/05 06:14:25;;;;;;;32.58;22.30;;;;;;;10.40;100.00;101942.38;5111827;28;20415;-69
2022/05/05 06:16:50;;;;;;;34.15;22.77;;;;;;;10.46;100.00;101946.91;5111163;27;20063;-69
2022/05/05 06:19:16;;;;;;;33.92;22.17;;;;;;;10.45;100.00;101942.47;5111481;28;20031;-70
2022/05/05 06:21:41;;;;;;;33.03;21.67;;;;;;;10.45;100.00;101950.41;5113465;28;20074;-69
2022/05/05 06:24:06;;;;;;;34.05;23.00;;;;;;;10.47;100.00;101946.06;5107225;28;20042;-69
2022/05/05 06:26:32;;;;;;;36.72;22.65;;;;;;;10.55;100.00;101946.22;5110432;28;20023;-68
2022/05/05 06:28:58;;;;;;;34.08;21.67;;;;;;;10.63;100.00;101952.56;5113260;28;20027;-70
2022/05/05 06:31:23;;;;;;;37.50;20.73;;;;;;;10.71;100.00;101956.25;5113715;27;20063;-69
2022/05/05 06:33:49;;;;;;;37.47;21.20;;;;;;;10.86;100.00;101952.16;5113898;28;20019;-68
2022/05/05 06:36:15;;;;;;;34.95;19.65;;;;;;;10.94;100.00;101950.56;5113070;27;20480;-69
2022/05/05 06:38:41;;;;;;;37.33;20.23;;;;;;;11.14;100.00;101962.44;5107372;27;20027;-73
2022/05/05 06:41:08;;;;;;;34.08;19.55;;;;;;;11.33;100.00;101954.88;5112447;28;20028;-68
2022/05/05 06:43:33;;;;;;;32.38;18.50;;;;;;;11.46;100.00;101956.88;5112939;28;20019;-68
2022/05/05 06:45:59;;;;;;;32.22;18.38;;;;;;;11.50;100.00;101953.41;5111388;28;20072;-72
2022/05/05 06:48:24;;;;;;;31.70;18.23;;;;;;;11.59;100.00;101955.34;5112627;28;20382;-69
2022/05/05 06:50:49;;;;;;;34.53;18.42;;;;;;;11.78;100.00;101961.84;5113030;28;20051;-69
2022/05/05 06:53:15;;;;;;;33.15;18.95;;;;;;;11.79;100.00;101955.66;5113162;28;20020;-70
2022/05/05 06:55:40;;;;;;;32.78;18.17;;;;;;;11.95;100.00;101955.97;5111378;28;20032;-72
2022/05/05 06:58:05;;;;;;;32.45;18.40;;;;;;;12.09;99.42;101957.06;5113094;28;20032;-72
2022/05/05 07:03:15;;;;;;;34.45;18.85;;;;;;;12.54;95.13;101966.59;5112292;28;20066;-65
2022/05/05 07:05:40;;;;;;;34.10;19.30;;;;;;;12.70;94.52;101964.16;5113068;28;20023;-74
2022/05/05 07:08:06;;;;;;;35.08;19.75;;;;;;;12.97;92.66;101960.06;5111221;28;20509;-71
2022/05/05 07:13:15;;;;;;;38.72;21.25;;;;;;;13.35;87.59;101973.81;5111384;28;20043;-70
2022/05/05 07:15:40;;;;;;;40.20;26.88;;;;;;;13.46;88.34;101973.03;5112157;28;20019;-68
2022/05/05 07:18:06;;;;;;;44.63;28.80;;;;;;;13.50;85.83;101980.13;5111717;28;20027;-74
2022/05/05 07:20:32;;;;;;;43.83;27.88;;;;;;;13.52;83.86;101989.03;5112680;28;20035;-72
2022/05/05 07:22:58;;;;;;;49.22;31.27;;;;;;;13.59;85.24;101990.88;5112190;28;20023;-67
2022/05/05 07:25:24;;;;;;;48.35;33.17;;;;;;;13.79;84.78;101991.06;5112374;28;20035;-69
2022/05/05 07:27:49;;;;;;;46.47;31.52;;;;;;;13.88;83.02;101996.47;5112363;28;20024;-64
2022/05/05 07:30:15;;;;;;;48.38;33.65;;;;;;;13.88;84.65;102004.44;5111748;28;20058;-71
2022/05/05 07:32:41;;;;;;;49.58;33.40;;;;;;;14.02;82.05;101995.69;5111598;27;20030;-68
2022/05/05 07:35:07;;;;;;;51.28;34.67;;;;;;;14.08;81.06;101999.31;5112292;28;20027;-69
2022/05/05 07:37:32;;;;;;;51.55;36.10;;;;;;;14.06;82.81;102002.81;5111682;27;20030;-73
2022/05/05 07:39:58;;;;;;;50.10;34.42;;;;;;;14.19;80.52;102004.69;5106971;28;20034;-69
2022/05/05 07:42:23;;;;;;;48.90;33.40;;;;;;;14.33;79.18;101995.91;5103651;28;20042;-70
2022/05/05 07:44:48;;;;;;;47.80;32.55;;;;;;;14.66;80.09;101992.63;5111017;28;20019;-70
2022/05/05 07:47:14;;;;;;;46.85;33.60;;;;;;;14.82;76.04;101998.91;5111145;28;20074;-70
2022/05/05 07:49:39;;;;;;;48.13;32.42;;;;;;;15.12;75.75;102005.28;5112112;28;20082;-69
2022/05/05 07:52:05;;;;;;;49.22;32.55;;;;;;;15.33;73.67;102000.03;5112019;28;20031;-69
2022/05/05 07:54:39;;;;;;;47.65;32.55;;;;;;;15.61;71.80;102004.50;5112683;28;20031;-71
2022/05/05 07:57:07;;;;;;;47.97;32.30;;;;;;;15.90;68.89;102012.59;5108878;28;20476;-69
2022/05/05 07:59:33;;;;;;;48.45;32.25;;;;;;;16.07;67.35;102006.38;5111501;28;20015;-71
2022/05/05 08:01:58;;;;;;;46.97;32.72;;;;;;;16.26;66.06;102008.13;5111943;28;20043;-65
2022/05/05 08:04:24;;;;;;;46.22;31.88;;;;;;;16.39;65.09;102012.56;5111769;28;20019;-65
2022/05/05 08:06:50;;;;;;;46.83;32.22;;;;;;;16.45;66.27;102016.13;5111873;28;20107;-66
2022/05/05 08:09:16;;;;;;;45.97;32.13;;;;;;;16.70;65.16;102023.19;5112279;28;20227;-67
2022/05/05 08:11:41;;;;;;;44.50;32.05;;;;;;;16.76;65.69;102010.69;5112587;28;20027;-65
2022/05/05 08:14:07;;;;;;;46.22;31.90;;;;;;;16.81;65.03;102014.25;5107927;28;20017;-66
2022/05/05 08:16:33;;;;;;;45.47;32.40;;;;;;;16.81;64.62;102009.81;5102471;28;20559;-65
2022/05/05 08:18:58;;;;;;;47.90;32.65;;;;;;;16.87;64.71;102008.91;5102117;28;20024;-65
2022/05/05 08:21:24;;;;;;;45.25;31.40;;;;;;;16.81;63.61;102015.16;5103938;28;20027;-69
2022/05/05 08:28:27;;;;;;;47.30;33.30;;;;;;;16.85;64.40;102019.59;5101127;28;20028;-69
2022/05/05 08:29:18;;;;;;;44.45;30.85;;;;;;;16.66;63.81;102032.09;5101294;28;20106;-65
2022/05/05 08:31:44;;;;;;;45.70;31.50;;;;;;;16.56;63.77;102030.34;5104171;28;20066;-68
2022/05/05 08:34:09;;;;;;;45.90;32.45;;;;;;;16.51;64.76;102026.78;5101626;28;20062;-68
2022/05/05 08:36:34;;;;;;;45.38;31.33;;;;;;;16.69;65.64;102025.88;5102891;28;20097;-65
2022/05/05 08:39:00;;;;;;;44.90;31.23;;;;;;;16.81;64.88;102030.28;5102928;28;20058;-65
2022/05/05 08:41:25;;;;;;;43.33;30.88;;;;;;;16.76;63.77;102043.66;5105165;28;20515;-65
2022/05/05 08:43:50;;;;;;;46.88;31.95;;;;;;;16.68;65.39;102035.63;5108228;28;20034;-65
2022/05/05 08:46:23;;;;;;;44.78;30.65;;;;;;;16.52;64.56;102044.56;5104428;28;20474;-65
2022/05/05 08:48:49;;;;;;;;;;;;;;;16.62;65.50;102041.00;5104859;28;20020;-66
2022/05/05 08:51:18;;;;;;;45.28;32.47;;;;;;;16.28;67.16;102043.72;5107731;28;19915;-70
2022/05/05 08:53:52;;;;;;;44.50;30.52;;;;;;;16.25;67.52;102045.47;5104619;28;20564;-69
2022/05/05 08:56:17;;;;;;;44.47;32.03;;;;;;;16.22;66.59;102046.34;5104164;28;20062;-64
2022/05/05 08:58:43;;;;;;;44.47;31.73;;;;;;;16.28;65.10;102046.38;5107298;28;20032;-65
2022/05/05 09:01:08;;;;;;;45.20;31.00;;;;;;;16.38;65.36;102041.91;5105427;27;20028;-64
2022/05/05 09:03:36;;;;;;;46.42;31.52;;;;;;;16.73;64.17;102047.22;5105858;28;20374;-64
2022/05/05 09:06:02;;;;;;;44.60;31.33;;;;;;;17.13;61.89;102050.69;5106277;28;20024;-64
2022/05/05 09:08:34;;;;;;;47.40;31.73;;;;;;;17.39;61.36;102048.78;5105136;28;20455;-64
2022/05/05 09:11:02;;;;;;;43.17;31.15;;;;;;;17.74;59.18;102055.72;5106588;27;20028;-64
2022/05/05 09:13:31;;;;;;;44.83;30.90;;;;;;;18.05;59.06;102058.19;5105543;28;20356;-65
2022/05/05 09:15:57;;;;;;;43.22;30.30;;;;;;;18.37;57.47;102054.38;5107246;27;20080;-64
2022/05/05 09:18:25;;;;;;;42.38;30.45;;;;;;;18.60;56.69;102056.84;5104347;28;20024;-64
2022/05/05 09:20:51;;;;;;;42.40;30.90;;;;;;;18.79;56.94;102056.66;5107267;28;20023;-64
2022/05/05 09:23:36;;;;;;;44.28;30.25;;;;;;;18.93;55.95;102059.19;5104392;28;20039;-64
2022/05/05 09:26:08;;;;;;;41.70;29.00;;;;;;;18.68;53.47;102059.41;5107669;28;20031;-64
2022/05/05 09:28:36;;;;;;;43.55;31.38;;;;;;;18.49;54.10;102061.41;5122456;28;20034;-63
2022/05/05 09:31:04;;;;;;;44.28;31.60;;;;;;;18.66;55.03;102061.25;5108008;28;20107;-64
2022/05/05 09:33:42;;;;;;;43.78;30.58;;;;;;;18.78;55.19;102068.25;5107559;28;20395;-64
2022/05/05 09:36:13;;;;;;;42.88;30.90;;;;;;;18.81;54.63;102063.78;5109393;28;20115;-65
2022/05/05 09:38:59;;;;;;;43.60;30.42;;;;;;;18.97;54.36;102068.97;5105942;28;20027;-65
2022/05/05 09:41:33;;;;;;;43.60;29.90;;;;;;;19.06;53.63;102071.56;5114143;28;20058;-64
2022/05/05 09:44:00;;;;;;;41.72;30.45;;;;;;;19.08;52.73;102069.75;5112433;28;20016;-65
2022/05/05 09:46:26;;;;;;;40.78;29.67;;;;;;;19.47;52.10;102071.94;5113455;28;20028;-64
2022/05/05 09:48:52;;;;;;;42.83;30.70;;;;;;;19.62;50.27;102077.09;5122680;28;20043;-65
2022/05/05 09:51:18;;;;;;;43.85;30.77;;;;;;;19.67;49.53;102074.34;5122422;27;20059;-67
2022/05/05 09:59:42;;;;;;;44.33;31.60;;;;;;;20.16;49.70;102079.00;5063247;28;20033;-65
2022/05/05 10:05:22;;;;;;;44.83;32.42;;;;;;;20.53;47.38;102073.00;4980375;28;20045;-64
2022/05/05 10:07:52;;;;;;;43.53;32.00;;;;;;;20.64;47.77;102075.50;4966950;28;20062;-66
2022/05/05 10:10:19;;;;;;;41.53;30.83;;;;;;;20.99;45.80;102078.47;4964587;28;20043;-64
2022/05/05 10:12:45;;;;;;;44.22;32.30;;;;;;;20.82;46.66;102081.47;4963862;28;20047;-64
2022/05/05 10:15:12;;;;;;;42.95;32.25;;;;;;;20.42;47.29;102085.75;4964816;28;20039;-65
2022/05/05 10:17:38;;;;;;;42.15;32.40;;;;;;;20.19;47.37;102084.31;4962618;28;20050;-64
2022/05/05 10:20:04;;;;;;;42.42;32.15;;;;;;;20.37;48.49;102082.22;4965470;28;20034;-65
2022/05/05 10:22:44;;;;;;;42.47;31.55;;;;;;;20.75;47.61;102091.47;4965402;28;20058;-64
2022/05/05 10:25:26;;;;;;;43.25;32.15;;;;;;;20.55;47.92;102076.53;4965207;28;20032;-64
2022/05/05 10:27:51;;;;;;;44.70;33.33;;;;;;;20.69;47.03;102084.41;4962781;28;20390;-66
2022/05/05 10:30:34;;;;;;;43.83;32.85;;;;;;;20.81;47.06;102080.59;4992535;28;20038;-65
2022/05/05 10:32:59;;;;;;;44.85;33.45;;;;;;;20.57;46.39;102076.50;5020496;28;20026;-64
2022/05/05 10:35:26;;;;;;;45.20;32.85;;;;;;;20.24;47.28;102080.66;5022937;28;20451;-65
2022/05/05 10:37:52;;;;;;;42.85;32.70;;;;;;;20.54;47.15;102077.44;5021364;28;20546;-66
2022/05/05 10:40:17;;;;;;;42.92;33.20;;;;;;;20.96;46.01;102075.84;5024104;28;20029;-65
2022/05/05 10:42:45;;;;;;;42.15;32.75;;;;;;;21.36;45.29;102070.53;5103675;28;20074;-65
2022/05/05 10:45:18;;;;;;;44.80;33.58;;;;;;;21.79;44.37;102081.28;5104730;28;20028;-66
2022/05/05 10:47:52;;;;;;;42.78;32.10;;;;;;;21.93;42.50;102077.34;5103831;28;20020;-64
2022/05/05 10:50:39;;;;;;;39.38;31.63;;;;;;;22.31;42.22;102076.41;5103569;27;20040;-66
2022/05/05 10:53:07;;;;;;;40.83;31.50;;;;;;;22.67;40.04;102079.13;5102346;28;20032;-65
2022/05/05 10:55:40;;;;;;;39.60;30.17;;;;;;;22.95;40.71;102073.84;5101999;28;20028;-64
2022/05/05 10:58:05;;;;;;;40.13;30.30;;;;;;;22.84;38.24;102076.84;5101835;28;20367;-65
2022/05/05 11:00:56;;;;;;;39.45;30.58;;;;;;;22.60;39.98;102073.91;5105633;28;20088;-64
2022/05/05 11:03:22;;;;;;;38.85;29.45;;;;;;;22.81;39.07;102083.19;5103438;28;20104;-65
2022/05/05 11:05:47;;;;;;;39.78;31.02;;;;;;;23.43;38.00;102078.78;5103822;27;20074;-65
2022/05/05 11:08:14;;;;;;;40.30;31.02;;;;;;;23.02;38.20;102080.81;5102807;28;20113;-66
2022/05/05 11:10:47;;;;;;;41.13;30.98;;;;;;;22.72;38.83;102085.28;5104657;28;20551;-65
2022/05/05 11:14:01;;;;;;;38.25;29.77;;;;;;;22.90;39.04;102089.28;5103280;28;20024;-65
2022/05/05 11:22:24;;;;;;;38.70;28.10;;;;;;;24.91;34.56;102081.13;5059292;28;20062;-64
2022/05/05 11:24:51;;;;;;;35.17;25.27;;;;;;;24.99;34.84;102073.63;5045830;28;20427;-64
2022/05/05 11:27:19;;;;;;;34.45;24.98;;;;;;;25.51;33.52;102078.03;5062169;28;20051;-65
2022/05/05 11:29:53;;;;;;;35.28;25.55;;;;;;;25.95;32.89;102079.88;5061157;28;20455;-65
2022/05/05 11:32:20;;;;;;;36.08;26.05;;;;;;;26.68;30.73;102067.81;5060608;28;20029;-65
2022/05/05 11:34:46;;;;;;;35.22;24.05;;;;;;;27.04;30.05;102077.97;5060874;28;20035;-65
2022/05/05 11:37:13;;;;;;;32.47;23.52;;;;;;;27.66;28.44;102077.78;5059951;28;20488;-65
2022/05/05 11:39:39;;;;;;;31.55;24.33;;;;;;;28.40;27.87;102070.53;5061709;28;20064;-65
2022/05/05 11:42:07;;;;;;;32.75;24.05;;;;;;;28.38;27.38;102077.88;5058551;28;20573;-65
2022/05/05 11:44:36;;;;;;;33.40;24.50;;;;;;;27.87;28.43;102072.25;5062851;28;20025;-65